sensor_id;sensor_type;location;lat;lon;timestamp;pressure;altitude;pressure_sealevel;temperature;humidity
74913;BME280;63878;55.624;37.304;2023-07-16T00:00:22;98753.19;;;11.46;72.46
74913;BME280;63878;55.624;37.304;2023-07-16T00:10:23;98748.19;;;11.43;72.26
74913;BME280;63878;55.624;37.304;2023-07-16T00:20:23;98748.72;;;11.29;73.76
74913;BME280;63878;55.624;37.304;2023-07-16T00:30:24;98749.69;;;11.28;73.51
74913;BME280;63878;55.624;37.304;2023-07-16T00:40:25;98742.63;;;11.01;73.93
74913;BME280;63878;55.624;37.304;2023-07-16T00:50:25;98745.38;;;10.82;74.79
74913;BME280;63878;55.624;37.304;2023-07-16T01:00:26;98766.69;;;10.98;74.22
74913;BME280;63878;55.624;37.304;2023-07-16T01:10:26;98762.88;;;11.10;73.48
74913;BME280;63878;55.624;37.304;2023-07-16T01:20:28;98774.75;;;10.96;73.98
74913;BME280;63878;55.624;37.304;2023-07-16T01:30:30;98777.63;;;10.85;74.71
74913;BME280;63878;55.624;37.304;2023-07-16T01:40:31;98783.50;;;10.60;75.24
74913;BME280;63878;55.624;37.304;2023-07-16T01:50:31;98793.38;;;10.58;75.77
74913;BME280;63878;55.624;37.304;2023-07-16T02:00:32;98794.81;;;10.42;76.49
74913;BME280;63878;55.624;37.304;2023-07-16T02:10:32;98793.56;;;10.46;76.21
74913;BME280;63878;55.624;37.304;2023-07-16T02:20:33;98786.47;;;10.47;76.18
74913;BME280;63878;55.624;37.304;2023-07-16T02:30:33;98793.16;;;10.41;76.16
74913;BME280;63878;55.624;37.304;2023-07-16T02:40:34;98798.97;;;10.45;76.54
74913;BME280;63878;55.624;37.304;2023-07-16T02:50:35;98794.06;;;10.69;75.83
74913;BME280;63878;55.624;37.304;2023-07-16T03:00:36;98812.25;;;10.72;75.52
74913;BME280;63878;55.624;37.304;2023-07-16T03:10:36;98814.19;;;10.70;75.28
74913;BME280;63878;55.624;37.304;2023-07-16T03:20:37;98828.88;;;10.92;75.19
74913;BME280;63878;55.624;37.304;2023-07-16T03:30:37;98835.72;;;11.13;73.71
74913;BME280;63878;55.624;37.304;2023-07-16T03:40:38;98829.94;;;11.27;73.29
74913;BME280;63878;55.624;37.304;2023-07-16T03:50:38;98831.75;;;10.99;74.76
74913;BME280;63878;55.624;37.304;2023-07-16T04:00:41;98835.16;;;11.09;74.21
74913;BME280;63878;55.624;37.304;2023-07-16T04:10:41;98845.09;;;10.97;74.98
74913;BME280;63878;55.624;37.304;2023-07-16T04:20:42;98859.19;;;11.16;75.03
74913;BME280;63878;55.624;37.304;2023-07-16T04:30:42;98851.81;;;11.19;74.75
74913;BME280;63878;55.624;37.304;2023-07-16T04:40:43;98857.28;;;11.35;74.69
74913;BME280;63878;55.624;37.304;2023-07-16T04:50:43;98854.19;;;11.68;73.33
74913;BME280;63878;55.624;37.304;2023-07-16T05:00:44;98856.69;;;12.05;71.48
74913;BME280;63878;55.624;37.304;2023-07-16T05:10:44;98868.16;;;12.05;72.86
74913;BME280;63878;55.624;37.304;2023-07-16T05:20:48;98872.13;;;12.27;71.44
74913;BME280;63878;55.624;37.304;2023-07-16T05:30:57;98874.66;;;12.37;71.54
74913;BME280;63878;55.624;37.304;2023-07-16T05:41:02;98886.66;;;12.67;70.47
74913;BME280;63878;55.624;37.304;2023-07-16T05:51:03;98882.47;;;14.01;66.60
74913;BME280;63878;55.624;37.304;2023-07-16T06:01:03;98881.09;;;13.81;67.80
74913;BME280;63878;55.624;37.304;2023-07-16T06:11:04;98866.69;;;13.33;67.19
74913;BME280;63878;55.624;37.304;2023-07-16T06:21:05;98883.97;;;13.53;68.67
74913;BME280;63878;55.624;37.304;2023-07-16T06:31:05;98881.66;;;14.74;64.37
74913;BME280;63878;55.624;37.304;2023-07-16T06:41:06;98893.78;;;14.27;64.49
74913;BME280;63878;55.624;37.304;2023-07-16T06:51:06;98884.00;;;14.69;64.04
74913;BME280;63878;55.624;37.304;2023-07-16T07:01:07;98878.94;;;15.54;61.81
74913;BME280;63878;55.624;37.304;2023-07-16T07:11:08;98877.19;;;15.30;61.53
74913;BME280;63878;55.624;37.304;2023-07-16T07:21:08;98884.00;;;14.69;64.76
74913;BME280;63878;55.624;37.304;2023-07-16T07:31:09;98868.38;;;14.49;64.22
74913;BME280;63878;55.624;37.304;2023-07-16T07:41:09;98861.03;;;15.71;60.39
74913;BME280;63878;55.624;37.304;2023-07-16T07:51:10;98859.38;;;15.70;59.11
74913;BME280;63878;55.624;37.304;2023-07-16T08:01:10;98863.66;;;15.39;59.93
74913;BME280;63878;55.624;37.304;2023-07-16T08:11:11;98861.13;;;15.15;58.83
74913;BME280;63878;55.624;37.304;2023-07-16T08:21:11;98871.81;;;15.38;61.58
74913;BME280;63878;55.624;37.304;2023-07-16T08:31:12;98852.59;;;15.90;59.59
74913;BME280;63878;55.624;37.304;2023-07-16T08:41:14;98875.31;;;16.46;58.34
74913;BME280;63878;55.624;37.304;2023-07-16T08:51:15;98864.91;;;15.91;59.11
74913;BME280;63878;55.624;37.304;2023-07-16T09:01:16;98873.84;;;15.98;59.45
74913;BME280;63878;55.624;37.304;2023-07-16T09:11:17;98881.44;;;16.09;58.93
74913;BME280;63878;55.624;37.304;2023-07-16T09:21:17;98885.03;;;15.93;59.33
74913;BME280;63878;55.624;37.304;2023-07-16T09:31:17;98884.66;;;15.97;58.90
74913;BME280;63878;55.624;37.304;2023-07-16T09:48:29;98890.38;;;16.16;57.77
74913;BME280;63878;55.624;37.304;2023-07-16T09:58:31;98880.91;;;16.14;57.72
74913;BME280;63878;55.624;37.304;2023-07-16T10:08:33;98888.00;;;16.21;56.98
74913;BME280;63878;55.624;37.304;2023-07-16T10:18:34;98879.81;;;16.46;54.84
74913;BME280;63878;55.624;37.304;2023-07-16T10:28:36;98876.88;;;16.18;53.08
74913;BME280;63878;55.624;37.304;2023-07-16T10:38:42;98874.34;;;16.47;53.67
74913;BME280;63878;55.624;37.304;2023-07-16T10:48:47;98879.09;;;16.52;52.29
74913;BME280;63878;55.624;37.304;2023-07-16T10:58:48;98882.88;;;16.58;52.02
74913;BME280;63878;55.624;37.304;2023-07-16T11:08:49;98878.03;;;16.61;51.06
74913;BME280;63878;55.624;37.304;2023-07-16T11:18:51;98877.56;;;16.58;51.17
74913;BME280;63878;55.624;37.304;2023-07-16T11:28:52;98869.34;;;16.82;50.05
74913;BME280;63878;55.624;37.304;2023-07-16T11:38:52;98880.53;;;16.63;48.70
74913;BME280;63878;55.624;37.304;2023-07-16T11:48:53;98883.53;;;16.60;49.99
74913;BME280;63878;55.624;37.304;2023-07-16T11:58:55;98890.34;;;16.62;49.35
74913;BME280;63878;55.624;37.304;2023-07-16T12:08:56;98865.53;;;16.62;48.83
74913;BME280;63878;55.624;37.304;2023-07-16T12:18:56;98865.03;;;16.81;49.00
74913;BME280;63878;55.624;37.304;2023-07-16T12:28:57;98864.75;;;16.91;48.16
74913;BME280;63878;55.624;37.304;2023-07-16T12:38:57;98865.13;;;16.88;45.99
74913;BME280;63878;55.624;37.304;2023-07-16T12:48:58;98865.28;;;16.86;45.92
74913;BME280;63878;55.624;37.304;2023-07-16T12:58:58;98864.75;;;16.91;47.27
74913;BME280;63878;55.624;37.304;2023-07-16T13:08:59;98851.25;;;17.07;46.40
74913;BME280;63878;55.624;37.304;2023-07-16T13:19:00;98852.97;;;17.44;46.96
74913;BME280;63878;55.624;37.304;2023-07-16T13:29:00;98859.25;;;17.37;45.27
74913;BME280;63878;55.624;37.304;2023-07-16T13:39:01;98851.53;;;17.27;45.67
74913;BME280;63878;55.624;37.304;2023-07-16T13:49:01;98862.56;;;17.24;46.11
74913;BME280;63878;55.624;37.304;2023-07-16T13:59:02;98863.09;;;17.19;47.30
74913;BME280;63878;55.624;37.304;2023-07-16T14:09:03;98881.34;;;17.16;48.50
74913;BME280;63878;55.624;37.304;2023-07-16T14:19:03;98874.53;;;17.28;47.59
74913;BME280;63878;55.624;37.304;2023-07-16T14:29:04;98889.97;;;17.18;48.08
74913;BME280;63878;55.624;37.304;2023-07-16T14:49:42;98870.44;;;16.88;49.52
74913;BME280;63878;55.624;37.304;2023-07-16T14:59:43;98886.16;;;16.83;49.30
74913;BME280;63878;55.624;37.304;2023-07-16T15:09:44;98889.25;;;16.71;50.31
74913;BME280;63878;55.624;37.304;2023-07-16T15:19:44;98892.81;;;17.01;49.59
74913;BME280;63878;55.624;37.304;2023-07-16T15:29:44;98902.75;;;16.55;50.86
74913;BME280;63878;55.624;37.304;2023-07-16T15:39:45;98917.00;;;16.62;52.27
74913;BME280;63878;55.624;37.304;2023-07-16T15:49:45;98916.84;;;16.41;52.87
74913;BME280;63878;55.624;37.304;2023-07-16T15:59:46;98913.94;;;16.51;52.09
74913;BME280;63878;55.624;37.304;2023-07-16T16:09:46;98902.38;;;16.12;51.77
74913;BME280;63878;55.624;37.304;2023-07-16T16:19:47;98915.97;;;15.94;53.27
74913;BME280;63878;55.624;37.304;2023-07-16T16:29:48;98911.78;;;16.00;53.08
74913;BME280;63878;55.624;37.304;2023-07-16T16:39:50;98918.84;;;16.16;53.00
74913;BME280;63878;55.624;37.304;2023-07-16T16:49:50;98914.41;;;16.08;53.88
74913;BME280;63878;55.624;37.304;2023-07-16T16:59:51;98916.03;;;16.09;53.58
74913;BME280;63878;55.624;37.304;2023-07-16T17:09:51;98921.25;;;16.03;53.87
74913;BME280;63878;55.624;37.304;2023-07-16T17:19:55;98932.41;;;16.52;57.30
74913;BME280;63878;55.624;37.304;2023-07-16T17:29:55;98940.16;;;16.62;53.85
74913;BME280;63878;55.624;37.304;2023-07-16T17:39:56;98942.63;;;16.17;54.36
74913;BME280;63878;55.624;37.304;2023-07-16T17:49:56;98947.09;;;15.94;54.32
74913;BME280;63878;55.624;37.304;2023-07-16T17:59:57;98947.84;;;15.80;54.26
74913;BME280;63878;55.624;37.304;2023-07-16T18:09:57;98959.00;;;15.75;53.57
74913;BME280;63878;55.624;37.304;2023-07-16T18:19:58;98961.78;;;15.82;53.18
74913;BME280;63878;55.624;37.304;2023-07-16T18:29:59;98950.59;;;15.39;54.33
74913;BME280;63878;55.624;37.304;2023-07-16T18:39:59;98962.44;;;15.45;53.83
74913;BME280;63878;55.624;37.304;2023-07-16T18:50:00;98965.63;;;15.24;54.65
74913;BME280;63878;55.624;37.304;2023-07-16T19:00:01;98966.28;;;15.34;55.05
74913;BME280;63878;55.624;37.304;2023-07-16T19:10:02;98958.06;;;15.52;55.34
74913;BME280;63878;55.624;37.304;2023-07-16T19:20:02;98967.25;;;15.49;54.55
74913;BME280;63878;55.624;37.304;2023-07-16T19:30:05;98966.75;;;15.46;54.70
74913;BME280;63878;55.624;37.304;2023-07-16T19:40:06;98961.31;;;15.23;55.25
74913;BME280;63878;55.624;37.304;2023-07-16T19:50:07;98953.56;;;14.80;56.83
74913;BME280;63878;55.624;37.304;2023-07-16T20:00:08;98951.06;;;14.71;57.34
74913;BME280;63878;55.624;37.304;2023-07-16T20:10:09;98955.22;;;14.81;57.85
74913;BME280;63878;55.624;37.304;2023-07-16T20:20:10;98964.16;;;15.05;57.09
74913;BME280;63878;55.624;37.304;2023-07-16T20:30:11;98956.22;;;14.80;57.45
74913;BME280;63878;55.624;37.304;2023-07-16T20:40:11;98963.84;;;14.83;57.49
74913;BME280;63878;55.624;37.304;2023-07-16T20:50:13;98964.53;;;14.69;57.83
74913;BME280;63878;55.624;37.304;2023-07-16T21:00:14;98965.94;;;14.39;58.35
74913;BME280;63878;55.624;37.304;2023-07-16T21:10:15;98971.22;;;14.07;60.24
74913;BME280;63878;55.624;37.304;2023-07-16T21:20:16;98967.75;;;14.14;60.27
74913;BME280;63878;55.624;37.304;2023-07-16T21:30:16;98968.06;;;14.11;60.24
74913;BME280;63878;55.624;37.304;2023-07-16T21:40:17;98971.81;;;13.84;61.58
74913;BME280;63878;55.624;37.304;2023-07-16T21:50:17;98962.75;;;13.61;62.47
74913;BME280;63878;55.624;37.304;2023-07-16T22:00:18;98957.34;;;13.70;61.78
74913;BME280;63878;55.624;37.304;2023-07-16T22:10:18;98965.00;;;13.82;62.08
74913;BME280;63878;55.624;37.304;2023-07-16T22:20:19;98964.00;;;13.74;62.04
74913;BME280;63878;55.624;37.304;2023-07-16T22:30:19;98962.53;;;13.80;61.75
74913;BME280;63878;55.624;37.304;2023-07-16T22:40:20;98963.84;;;13.84;61.32
74913;BME280;63878;55.624;37.304;2023-07-16T22:50:20;98969.41;;;14.07;60.81
74913;BME280;63878;55.624;37.304;2023-07-16T23:00:22;98969.47;;;13.73;61.79
74913;BME280;63878;55.624;37.304;2023-07-16T23:10:22;98965.38;;;13.52;62.28
74913;BME280;63878;55.624;37.304;2023-07-16T23:20:23;98973.00;;;13.56;62.29
74913;BME280;63878;55.624;37.304;2023-07-16T23:30:23;98982.41;;;13.24;63.57
74913;BME280;63878;55.624;37.304;2023-07-16T23:40:24;98994.59;;;13.09;64.11
74913;BME280;63878;55.624;37.304;2023-07-16T23:50:24;98975.97;;;12.75;65.29
